METAR Data
IDs: Format: Raw Decoded Include TAF

Data at: 0938 UTC 07 Dec 2021

KDTS 070853Z AUTO 02004KT 10SM OVC011 18/17 A3004 RMK AO2 SLP173 T01830167 53003
KDTS 070753Z AUTO 08003KT 10SM OVC010 18/17 A3004 RMK AO2 SLP172 T01780167
KDTS 070743Z AUTO 00000KT 10SM OVC010 18/17 A3005 RMK AO2 T01780172
KDTS 070712Z AUTO 01003KT 10SM BKN009 18/17 A3005 RMK AO2 T01780167
KDTS 070653Z AUTO 02003KT 10SM FEW008 18/17 A3003 RMK AO2 SLP170 T01780167
KDTS 070644Z AUTO 35004KT 10SM SCT010 18/17 A3003 RMK AO2 T01780167
KDTS 070608Z AUTO 01004KT 10SM BKN010 18/17 A3004 RMK AO2 T01830167
KDTS 070553Z AUTO 33007KT 10SM CLR 18/16 A3004 RMK AO2 SLP170 60000 T01780161 10194 20178 402390178 55015
KDTS 070453Z AUTO 13008KT 10SM CLR 18/16 A3003 RMK AO2 PRESFR SLP167 T01780161 TSNO
KDTS 070353Z 00000KT 10SM BKN050 18/17 A3006 RMK AO2 SLP179 T01830167
KDTS 070253Z 00000KT 10SM CLR 18/17 A3008 RMK AO2 SLP185 60000 T01830167 50004
KDTS 070153Z 34005KT 10SM OVC065 19/17 A3008 RMK AO2 SLP186 T01890167
KDTS 070053Z 33003KT 10SM OVC065 19/17 A3007 RMK AO2 RAE18 SLP183 P0000 T01940167
KDTS 070000Z VRB03KT 10SM -RA OVC070 19/18 A3007 RMK AO2 P0000 T01940178
KDTS 062353Z VRB03KT 2SM -RA BR BKN070 OVC100 19/17 A3007 RMK AO2 RAB02 SLP181 P0011 60011 T01940172 10239 20194 53019
KDTS 062332Z 31007G18KT 2SM -RA BR FEW015 BKN043 OVC100 21/18 A3005 RMK AO2 RAB02 P0011 T02060183
KDTS 062331Z 32008G18KT 2SM -RA BR FEW015 BKN043 OVC100 21/18 A3005 RMK AO2 RAB02 P0011 T02060183
KDTS 062308Z VRB05KT 2SM -RA BR FEW008 BKN031 OVC095 22/21 A3004 RMK AO2 RAB02 P0008 T02220206
KDTS 062303Z VRB04KT 2SM -RA BR BKN021 BKN031 OVC095 23/21 A3004 RMK AO2 RAB02 P0001 T02280206
KDTS 062253Z 24003KT 10SM SCT027 BKN033 BKN095 22/20 A3004 RMK AO2 SLP171 T02220200
KDTS 062153Z VRB04KT 10SM FEW025 SCT043 SCT050 23/21 A3002 RMK AO2 SLP163 T02280206
KDTS 062126Z VRB04KT 10SM FEW015 SCT028 BKN035 23/21 A3002 RMK AO2 T02280206
KDTS 062053Z VRB03KT 10SM SCT017 OVC025 22/20 A3001 RMK AO2 SLP162 T02220200 56007
KDTS 061953Z 20003KT 10SM FEW012 BKN017 OVC029 23/20 A3001 RMK AO2 SLP163 T02280200
KDTS 061930Z 21005KT 10SM FEW016 OVC029 23/20 A3003 RMK AO2 T02330200
KDTS 061853Z 22004KT 10SM SCT033 BKN040 23/19 A3003 RMK AO2 SLP167 T02330194
KDTS 061753Z VRB05KT 10SM CLR 24/19 A3003 RMK AO2 SLP169 T02390194 10239 20211 58019
KDTS 061653Z VRB03KT 10SM SCT038 23/19 A3007 RMK AO2 SLP180 T02330189
KDTS 061553Z 21004KT 10SM BKN065 BKN100 23/19 A3009 RMK AO2 SLP190 T02330189
KDTS 061453Z VRB04KT 10SM BKN100 23/19 A3009 RMK AO2 SLP188 T02330194 53007
KDTS 061353Z 19005KT 10SM CLR 22/19 A3007 RMK AO2 SLP182 T02220189
KDTS 061253Z 20004KT 10SM SCT024 21/18 A3007 RMK AO2 SLP182 T02110183
KDTS 061219Z VRB03KT 10SM BKN023 21/18 A3008 RMK AO2 T02110183
KDTS 061153Z 19005KT 10SM FEW090 21/18 A3007 RMK AO2 SLP181 T02110183 10222 20200 53003
KDTS 061053Z AUTO 18005KT 10SM FEW022 22/18 A3006 RMK AO2 SLP179 T02170183
KDTS 060953Z AUTO 17007KT 10SM CLR 22/18 A3006 RMK AO2 SLP179 T02170178
KDTS 060917Z AUTO VRB05KT 10SM SCT025 BKN039 22/18 A3006 RMK AO2 T02170178
KDTS 060853Z AUTO 17007KT 10SM BKN028 22/17 A3006 RMK AO2 SLP178 T02170172 58007
KDTS 060753Z AUTO 17007G15KT 10SM FEW029 22/17 A3007 RMK AO2 SLP181 T02170172
KDTS 060653Z AUTO 17007KT 10SM SCT100 22/18 A3008 RMK AO2 SLP184 T02170178
KDTS 060553Z AUTO 15003KT 10SM CLR 21/18 A3008 RMK AO2 SLP185 T02060183 10206 20194 402170133 58008
KDTS 060453Z AUTO 15009KT 10SM FEW022 21/18 A3009 RMK AO2 SLP190 T02060183
KDTS 060353Z AUTO 14006KT 10SM SCT024 21/19 A3011 RMK AO2 SLP197 T02060189
KDTS 060253Z 13006KT 10SM FEW044 21/19 A3011 RMK AO2 SLP194 T02060189 51003
KDTS 060153Z 13008KT 10SM CLR 20/18 A3010 RMK AO2 SLP193 T02000178
KDTS 060053Z 11006KT 10SM OVC046 20/18 A3010 RMK AO2 SLP193 T02000178
KDTS 052353Z 12005KT 10SM BKN041 20/17 A3010 RMK AO2 SLP191 T02000167 10217 20200 53007
KDTS 052253Z 13006KT 10SM SCT037 20/17 A3008 RMK AO2 SLP184 T02000167
KDTS 052153Z 12008KT 10SM OVC041 21/16 A3008 RMK AO2 SLP184 T02110161